Time;durP1;ratioP1;P1;durP2;ratioP2;P2;SDS_P1;SDS_P2;PMS_P1;PMS_P2;Temp;Humidity;BMP_temperature;BMP_pressure;BME280_temperature;BME280_humidity;BME280_pressure;Samples;Min_cycle;Max_cycle;Signal;HPM_P1;HPM_P2
2022/06/03 00:02:20;;;;;;;6.07;2.65;;;;;;;;;;4452244;32;20251;-56
2022/06/03 00:05:03;;;;;;;7.72;2.65;;;;;;;;;;4449468;32;20696;-57
2022/06/03 00:07:47;;;;;;;7.03;2.58;;;;;;;;;;4449834;32;20225;-57
2022/06/03 00:10:43;;;;;;;6.07;3.17;;;;;;;;;;4464996;32;20259;-57
2022/06/03 00:13:21;;;;;;;5.25;2.12;;;;;;;;;;4465077;32;20583;-57
2022/06/03 00:16:12;;;;;;;9.35;2.53;;;;;;;;;;4464309;32;20393;-56
2022/06/03 00:18:55;;;;;;;7.22;3.25;;;;;;;;;;4464950;32;20200;-57
2022/06/03 00:21:58;;;;;;;6.68;2.70;;;;;;;;;;4464811;32;20246;-57
2022/06/03 00:24:47;;;;;;;12.48;3.40;;;;;;;;;;4464482;32;20199;-57
2022/06/03 00:27:20;;;;;;;5.43;2.78;;;;;;;;;;4464408;32;20301;-57
2022/06/03 00:30:14;;;;;;;5.10;3.05;;;;;;;;;;4464257;32;20647;-56
2022/06/03 00:33:10;;;;;;;11.63;2.58;;;;;;;;;;4464821;32;20284;-57
2022/06/03 00:35:53;;;;;;;4.82;2.67;;;;;;;;;;4464401;32;20642;-56
2022/06/03 00:38:31;;;;;;;5.20;2.72;;;;;;;;;;4464907;32;20650;-56
2022/06/03 00:41:05;;;;;;;10.30;2.72;;;;;;;;;;4464128;32;20407;-56
2022/06/03 00:43:51;;;;;;;9.13;3.20;;;;;;;;;;4464902;32;20224;-56
2022/06/03 00:46:40;;;;;;;5.65;3.28;;;;;;;;;;4464220;32;20414;-56
2022/06/03 00:49:18;;;;;;;5.35;2.70;;;;;;;;;;4440080;32;20794;-56
2022/06/03 00:51:46;;;;;;;7.37;2.60;;;;;;;;;;4464419;32;20251;-56
2022/06/03 00:54:40;;;;;;;4.72;2.90;;;;;;;;;;4464344;32;20342;-56
2022/06/03 00:57:30;;;;;;;10.63;3.12;;;;;;;;;;4464285;32;20533;-57
2022/06/03 01:00:02;;;;;;;8.32;3.10;;;;;;;;;;4461523;32;20639;-56
2022/06/03 01:02:54;;;;;;;4.15;2.85;;;;;;;;;;4450269;32;20225;-56
2022/06/03 01:05:41;;;;;;;7.60;3.75;;;;;;;;;;4448977;32;20193;-56
2022/06/03 01:08:18;;;;;;;8.10;3.83;;;;;;;;;;4454519;32;20354;-56
2022/06/03 01:10:59;;;;;;;13.57;3.50;;;;;;;;;;4466952;32;20274;-56
2022/06/03 01:13:27;;;;;;;10.05;3.55;;;;;;;;;;4467174;32;20230;-56
2022/06/03 01:16:17;;;;;;;6.18;3.42;;;;;;;;;;4466928;32;20224;-56
2022/06/03 01:19:07;;;;;;;8.50;3.12;;;;;;;;;;4466937;32;20222;-56
2022/06/03 01:21:57;;;;;;;9.13;2.67;;;;;;;;;;4467151;32;20245;-56
2022/06/03 01:24:55;;;;;;;7.12;3.12;;;;;;;;;;4467028;32;20219;-56
2022/06/03 01:27:33;;;;;;;5.32;3.35;;;;;;;;;;4467265;32;20511;-56
2022/06/03 01:30:29;;;;;;;4.68;2.97;;;;;;;;;;4466614;32;20299;-56
2022/06/03 01:33:12;;;;;;;9.95;3.70;;;;;;;;;;4442311;32;20270;-56
2022/06/03 01:36:00;;;;;;;7.70;2.85;;;;;;;;;;4467147;32;20672;-56
2022/06/03 01:38:32;;;;;;;10.00;3.30;;;;;;;;;;4466946;32;20219;-56
2022/06/03 01:41:45;;;;;;;9.88;3.92;;;;;;;;;;4466589;32;20654;-56
2022/06/03 01:44:20;;;;;;;5.10;3.60;;;;;;;;;;4423629;32;20335;-56
2022/06/03 01:47:30;;;;;;;4.97;3.90;;;;;;;;;;4466871;32;20299;-56
2022/06/03 01:50:26;;;;;;;6.18;4.20;;;;;;;;;;4423709;32;20637;-56
2022/06/03 01:53:17;;;;;;;4.60;3.75;;;;;;;;;;4466923;32;20284;-56
2022/06/03 01:56:06;;;;;;;7.57;3.87;;;;;;;;;;4465288;32;20265;-57
2022/06/03 01:58:44;;;;;;;6.82;3.80;;;;;;;;;;4466617;32;20248;-57
2022/06/03 02:01:34;;;;;;;7.75;3.80;;;;;;;;;;4457165;32;20216;-56
2022/06/03 02:04:14;;;;;;;6.57;3.53;;;;;;;;;;4466563;32;20654;-56
2022/06/03 02:07:05;;;;;;;8.82;3.67;;;;;;;;;;4466351;32;20298;-56
2022/06/03 02:10:07;;;;;;;8.35;3.80;;;;;;;;;;4453114;32;20220;-57
2022/06/03 02:12:35;;;;;;;6.85;2.80;;;;;;;;;;4451024;32;20286;-57
2022/06/03 02:15:04;;;;;;;7.65;3.70;;;;;;;;;;4450357;32;20213;-57
2022/06/03 02:17:48;;;;;;;10.00;3.87;;;;;;;;;;4450670;32;20293;-56
2022/06/03 02:20:38;;;;;;;6.43;3.37;;;;;;;;;;4450271;32;20204;-56
2022/06/03 02:23:31;;;;;;;7.72;4.00;;;;;;;;;;4450875;32;20320;-56
2022/06/03 02:26:30;;;;;;;8.77;3.87;;;;;;;;;;4450355;32;20454;-56
2022/06/03 02:32:08;;;;;;;6.28;4.25;;;;;;;;;;4450172;32;20244;-56
2022/06/03 02:34:59;;;;;;;6.25;4.07;;;;;;;;;;4450366;32;20360;-56
2022/06/03 02:38:02;;;;;;;4.80;4.00;;;;;;;;;;4450510;32;20273;-56
2022/06/03 02:40:59;;;;;;;8.43;3.97;;;;;;;;;;4450142;32;20215;-56
2022/06/03 02:43:37;;;;;;;15.90;4.37;;;;;;;;;;4425991;32;20228;-56
2022/06/03 02:46:28;;;;;;;8.45;3.45;;;;;;;;;;4448782;32;20813;-56
2022/06/03 02:49:14;;;;;;;8.82;4.18;;;;;;;;;;4450375;32;20197;-56
2022/06/03 02:51:57;;;;;;;12.70;4.30;;;;;;;;;;4453709;32;20204;-56
2022/06/03 02:54:51;;;;;;;8.25;3.90;;;;;;;;;;4465593;32;20517;-55
2022/06/03 02:57:19;;;;;;;9.40;3.72;;;;;;;;;;4448770;32;20994;-56
2022/06/03 03:00:14;;;;;;;7.00;3.25;;;;;;;;;;4449429;32;20200;-56
2022/06/03 03:02:58;;;;;;;7.45;4.70;;;;;;;;;;4450151;32;20244;-56
2022/06/03 03:05:32;;;;;;;7.70;3.75;;;;;;;;;;4449769;32;20525;-57
2022/06/03 03:08:36;;;;;;;10.98;4.37;;;;;;;;;;4453208;32;20227;-56
2022/06/03 03:11:24;;;;;;;4.82;3.55;;;;;;;;;;4464175;32;20246;-56
2022/06/03 03:13:59;;;;;;;13.38;6.05;;;;;;;;;;4464926;32;20303;-56
2022/06/03 03:16:36;;;;;;;20.70;7.62;;;;;;;;;;4464984;32;20216;-56
2022/06/03 03:19:16;;;;;;;13.05;6.32;;;;;;;;;;4465091;32;20196;-58
2022/06/03 03:21:57;;;;;;;13.57;7.20;;;;;;;;;;4464936;32;20272;-57
2022/06/03 03:24:34;;;;;;;13.25;7.60;;;;;;;;;;4465289;32;20207;-57
2022/06/03 03:27:41;;;;;;;15.98;6.28;;;;;;;;;;4464959;32;20239;-57
2022/06/03 03:30:09;;;;;;;10.00;5.68;;;;;;;;;;4464806;32;20795;-57
2022/06/03 03:33:06;;;;;;;15.77;8.45;;;;;;;;;;4465628;32;20620;-56
2022/06/03 03:35:41;;;;;;;14.05;9.73;;;;;;;;;;4464994;32;20191;-56
2022/06/03 03:38:34;;;;;;;19.65;10.70;;;;;;;;;;4465280;32;20313;-56
2022/06/03 03:40:59;;;;;;;16.65;9.57;;;;;;;;;;4465233;32;20521;-56
2022/06/03 03:44:15;;;;;;;16.92;9.80;;;;;;;;;;4464508;32;20358;-58
2022/06/03 03:47:19;;;;;;;20.62;12.32;;;;;;;;;;4444071;32;20227;-55
2022/06/03 03:50:09;;;;;;;16.73;9.25;;;;;;;;;;4417183;32;20240;-56
2022/06/03 03:53:08;;;;;;;16.95;6.50;;;;;;;;;;4449536;32;20377;-57
2022/06/03 03:56:01;;;;;;;9.73;4.85;;;;;;;;;;4453830;32;20235;-57
2022/06/03 03:59:06;;;;;;;7.95;5.12;;;;;;;;;;4464333;32;20219;-57
2022/06/03 04:01:58;;;;;;;10.75;4.68;;;;;;;;;;4457522;32;20262;-57
2022/06/03 04:04:41;;;;;;;8.27;5.32;;;;;;;;;;4465025;32;20192;-56
2022/06/03 04:07:25;;;;;;;7.07;4.03;;;;;;;;;;4464811;32;20272;-56
2022/06/03 04:10:22;;;;;;;7.97;4.35;;;;;;;;;;4464801;32;20208;-56
2022/06/03 04:12:57;;;;;;;11.75;4.57;;;;;;;;;;4465220;32;20348;-56
2022/06/03 04:15:37;;;;;;;9.95;4.93;;;;;;;;;;4464543;32;20215;-56
2022/06/03 04:18:27;;;;;;;8.40;4.78;;;;;;;;;;4465067;32;20249;-56
2022/06/03 04:21:14;;;;;;;13.00;4.50;;;;;;;;;;4464500;32;20573;-56
2022/06/03 04:24:19;;;;;;;9.50;5.53;;;;;;;;;;4465066;32;20223;-56
2022/06/03 04:27:16;;;;;;;6.43;5.00;;;;;;;;;;4464660;32;20620;-57
2022/06/03 04:29:51;;;;;;;13.82;5.53;;;;;;;;;;4421039;32;20336;-56
2022/06/03 04:32:38;;;;;;;12.02;5.70;;;;;;;;;;4465101;32;20304;-56
2022/06/03 04:35:35;;;;;;;9.07;5.93;;;;;;;;;;4464735;32;20385;-56
2022/06/03 04:38:15;;;;;;;11.35;6.20;;;;;;;;;;4464310;32;20209;-56
2022/06/03 04:41:17;;;;;;;8.93;5.40;;;;;;;;;;4464346;32;20200;-56
2022/06/03 04:44:17;;;;;;;16.45;7.30;;;;;;;;;;4465363;32;20191;-56
2022/06/03 04:47:30;;;;;;;13.32;6.65;;;;;;;;;;4450084;32;20664;-57
2022/06/03 04:50:37;;;;;;;25.33;7.03;;;;;;;;;;4440754;32;20216;-57
2022/06/03 04:53:15;;;;;;;18.73;7.25;;;;;;;;;;4428659;32;20264;-57
2022/06/03 04:55:49;;;;;;;10.95;6.62;;;;;;;;;;4456556;32;20226;-56
2022/06/03 04:58:48;;;;;;;11.12;6.87;;;;;;;;;;4467446;32;20199;-57
2022/06/03 05:01:45;;;;;;;14.50;6.22;;;;;;;;;;4450978;32;20243;-56
2022/06/03 05:04:46;;;;;;;11.02;4.97;;;;;;;;;;4451774;32;20200;-56
2022/06/03 05:07:31;;;;;;;11.80;5.80;;;;;;;;;;4451106;32;20303;-57
2022/06/03 05:10:15;;;;;;;14.02;4.60;;;;;;;;;;4451068;32;20184;-56
2022/06/03 05:12:43;;;;;;;9.88;4.93;;;;;;;;;;4451228;32;20232;-56
2022/06/03 05:15:12;;;;;;;10.38;4.93;;;;;;;;;;4450330;32;20204;-56
2022/06/03 05:18:04;;;;;;;7.18;4.85;;;;;;;;;;4450842;32;20585;-56
2022/06/03 05:20:57;;;;;;;14.30;4.50;;;;;;;;;;4451311;32;20287;-56
2022/06/03 05:23:37;;;;;;;11.23;5.43;;;;;;;;;;4449616;32;20197;-56
2022/06/03 05:26:06;;;;;;;13.62;6.62;;;;;;;;;;4449971;32;20224;-58
2022/06/03 05:28:40;;;;;;;17.45;6.68;;;;;;;;;;4449650;32;20264;-56
2022/06/03 05:31:20;;;;;;;88.22;21.17;;;;;;;;;;4450186;32;20251;-57
2022/06/03 05:34:04;;;;;;;55.50;17.58;;;;;;;;;;4449818;32;20246;-57
2022/06/03 05:36:32;;;;;;;32.33;11.05;;;;;;;;;;4449054;32;20212;-57
2022/06/03 05:39:23;;;;;;;12.75;7.22;;;;;;;;;;4449152;32;20835;-57
2022/06/03 05:42:30;;;;;;;12.48;7.32;;;;;;;;;;4461447;32;20636;-56
2022/06/03 05:45:24;;;;;;;24.58;9.38;;;;;;;;;;4432130;32;20298;-56
2022/06/03 05:48:17;;;;;;;14.38;6.07;;;;;;;;;;4465385;32;20212;-57
2022/06/03 05:50:55;;;;;;;12.90;5.43;;;;;;;;;;4465982;32;20572;-57
2022/06/03 05:53:33;;;;;;;15.10;9.70;;;;;;;;;;4451598;32;20212;-56
2022/06/03 05:56:27;;;;;;;30.83;7.18;;;;;;;;;;4457334;32;20263;-57
2022/06/03 05:58:52;;;;;;;30.65;11.12;;;;;;;;;;4464926;32;20211;-57
2022/06/03 06:01:36;;;;;;;13.60;6.53;;;;;;;;;;4458486;32;20690;-56
2022/06/03 06:04:11;;;;;;;16.90;7.07;;;;;;;;;;4450815;32;20580;-58
2022/06/03 06:07:10;;;;;;;19.25;5.93;;;;;;;;;;4450384;32;20410;-56
2022/06/03 06:09:45;;;;;;;9.15;4.70;;;;;;;;;;4451161;32;20756;-56
2022/06/03 06:12:20;;;;;;;7.72;4.45;;;;;;;;;;4450091;32;20295;-56
2022/06/03 06:14:48;;;;;;;8.45;5.32;;;;;;;;;;4449658;32;20571;-56
2022/06/03 06:17:34;;;;;;;14.85;4.32;;;;;;;;;;4450249;32;20213;-56
2022/06/03 06:20:30;;;;;;;10.57;4.30;;;;;;;;;;4450154;32;20334;-56
2022/06/03 06:23:06;;;;;;;7.97;4.03;;;;;;;;;;4449934;32;20224;-56
2022/06/03 06:25:45;;;;;;;17.12;4.80;;;;;;;;;;4450140;32;20249;-56
2022/06/03 06:28:36;;;;;;;13.27;4.05;;;;;;;;;;4449910;32;20578;-57
2022/06/03 06:31:33;;;;;;;10.25;4.40;;;;;;;;;;4449981;32;20719;-56
2022/06/03 06:34:31;;;;;;;23.25;5.40;;;;;;;;;;4433542;32;20545;-56
2022/06/03 06:37:30;;;;;;;10.80;4.90;;;;;;;;;;4448586;32;20315;-57
2022/06/03 06:40:01;;;;;;;12.25;4.12;;;;;;;;;;4449784;32;20180;-57
2022/06/03 06:43:05;;;;;;;7.97;4.65;;;;;;;;;;4448581;32;20311;-57
2022/06/03 06:45:48;;;;;;;14.93;4.62;;;;;;;;;;4450157;32;20191;-57
2022/06/03 06:48:37;;;;;;;16.60;5.03;;;;;;;;;;4449732;32;20258;-56
2022/06/03 06:51:15;;;;;;;9.52;5.50;;;;;;;;;;4457584;32;20283;-57
2022/06/03 06:53:49;;;;;;;9.95;3.70;;;;;;;;;;4465619;32;20227;-56
2022/06/03 06:56:24;;;;;;;11.35;5.43;;;;;;;;;;4465315;32;20231;-56
2022/06/03 06:58:55;;;;;;;8.45;4.07;;;;;;;;;;4463293;32;20220;-57
2022/06/03 07:01:33;;;;;;;6.00;4.60;;;;;;;;;;4456399;32;20652;-56
2022/06/03 07:04:00;;;;;;;7.20;3.53;;;;;;;;;;4464632;32;20197;-57
2022/06/03 07:06:44;;;;;;;12.37;4.87;;;;;;;;;;4463796;32;20294;-56
2022/06/03 07:09:10;;;;;;;7.53;3.75;;;;;;;;;;4464500;32;20208;-56
2022/06/03 07:12:18;;;;;;;6.75;3.75;;;;;;;;;;4464387;32;20338;-55
2022/06/03 07:15:15;;;;;;;8.75;4.00;;;;;;;;;;4453386;32;20265;-57
2022/06/03 07:20:59;;;;;;;13.68;3.67;;;;;;;;;;4463825;32;20320;-55
2022/06/03 07:23:34;;;;;;;12.05;3.67;;;;;;;;;;4464156;32;20188;-56
2022/06/03 07:26:10;;;;;;;5.12;3.00;;;;;;;;;;4463938;32;20211;-57
2022/06/03 07:28:47;;;;;;;10.00;3.78;;;;;;;;;;4464087;32;20207;-55
2022/06/03 07:31:18;;;;;;;10.85;3.67;;;;;;;;;;4464395;32;20508;-56
2022/06/03 07:33:57;;;;;;;6.18;3.22;;;;;;;;;;4453900;32;20236;-57
2022/06/03 07:36:34;;;;;;;10.50;3.60;;;;;;;;;;4447758;32;20660;-57
2022/06/03 07:39:02;;;;;;;8.43;3.03;;;;;;;;;;4447989;32;20188;-56
2022/06/03 07:41:41;;;;;;;11.70;3.50;;;;;;;;;;4447943;32;20225;-56
2022/06/03 07:44:18;;;;;;;12.93;4.03;;;;;;;;;;4447697;32;20201;-57
2022/06/03 07:46:52;;;;;;;5.20;2.67;;;;;;;;;;4448180;32;20208;-56
2022/06/03 07:49:19;;;;;;;10.68;3.28;;;;;;;;;;4447978;32;20216;-56
2022/06/03 07:51:50;;;;;;;21.90;4.50;;;;;;;;;;4447854;32;20239;-56
2022/06/03 07:54:25;;;;;;;6.90;3.20;;;;;;;;;;4447903;32;20343;-56
2022/06/03 07:56:59;;;;;;;7.57;3.12;;;;;;;;;;4460467;32;20618;-57
2022/06/03 07:59:25;;;;;;;4.28;3.00;;;;;;;;;;4462744;32;20287;-56
2022/06/03 08:02:13;;;;;;;12.10;3.67;;;;;;;;;;4452190;32;20665;-56
2022/06/03 08:04:39;;;;;;;8.55;3.65;;;;;;;;;;4448138;32;20678;-56
2022/06/03 08:12:56;;;;;;;6.68;2.62;;;;;;;;;;4463814;32;20315;-57
2022/06/03 08:15:28;;;;;;;4.57;2.87;;;;;;;;;;4464628;32;20583;-56
2022/06/03 08:17:54;;;;;;;6.95;3.95;;;;;;;;;;4465692;32;20208;-57
2022/06/03 08:20:23;;;;;;;5.07;3.03;;;;;;;;;;4466721;32;20200;-58
2022/06/03 08:22:50;;;;;;;8.52;3.35;;;;;;;;;;4465608;32;20216;-57
2022/06/03 08:25:21;;;;;;;4.28;2.47;;;;;;;;;;4465242;32;20224;-57
2022/06/03 08:27:49;;;;;;;18.62;5.05;;;;;;;;;;4466149;32;20284;-57
2022/06/03 08:30:21;;;;;;;9.75;3.28;;;;;;;;;;4455824;32;20268;-57
2022/06/03 08:32:51;;;;;;;12.73;3.55;;;;;;;;;;4451515;32;20411;-56
2022/06/03 08:35:21;;;;;;;13.23;3.05;;;;;;;;;;4457378;32;20239;-57
2022/06/03 08:37:52;;;;;;;8.60;3.33;;;;;;;;;;4465061;32;20417;-56
2022/06/03 08:40:41;;;;;;;10.05;3.37;;;;;;;;;;4450735;32;20585;-56
2022/06/03 08:43:45;;;;;;;5.82;2.90;;;;;;;;;;4448935;32;20311;-56
2022/06/03 08:46:18;;;;;;;10.10;3.22;;;;;;;;;;4450612;32;20726;-57
2022/06/03 08:48:47;;;;;;;3.87;2.37;;;;;;;;;;4451440;32;20196;-56
2022/06/03 08:51:31;;;;;;;7.87;3.20;;;;;;;;;;4450408;32;20236;-56
2022/06/03 08:54:06;;;;;;;8.50;3.78;;;;;;;;;;4450425;32;20259;-57
2022/06/03 08:56:37;;;;;;;8.60;3.10;;;;;;;;;;4461551;32;20655;-56
2022/06/03 08:59:12;;;;;;;7.10;3.12;;;;;;;;;;4464593;32;20207;-55
2022/06/03 09:01:43;;;;;;;10.15;2.85;;;;;;;;;;4450082;32;20237;-56
2022/06/03 09:04:21;;;;;;;8.63;3.08;;;;;;;;;;4450655;32;20641;-57
2022/06/03 09:07:00;;;;;;;10.68;3.17;;;;;;;;;;4450322;32;20291;-57
2022/06/03 09:09:47;;;;;;;7.22;3.42;;;;;;;;;;4463071;32;20421;-56
2022/06/03 09:12:28;;;;;;;19.25;3.60;;;;;;;;;;4464767;32;20556;-57
2022/06/03 09:14:56;;;;;;;9.43;2.83;;;;;;;;;;4464938;32;20299;-57
2022/06/03 09:17:44;;;;;;;6.30;2.85;;;;;;;;;;4465026;32;20232;-58
2022/06/03 09:20:18;;;;;;;4.45;3.40;;;;;;;;;;4465378;32;20216;-57
2022/06/03 09:22:45;;;;;;;6.10;2.80;;;;;;;;;;4465196;32;20215;-56
2022/06/03 09:25:13;;;;;;;5.12;3.10;;;;;;;;;;4464409;32;20363;-56
2022/06/03 09:27:41;;;;;;;8.80;3.28;;;;;;;;;;4464821;32;20317;-56
2022/06/03 09:30:09;;;;;;;9.45;4.10;;;;;;;;;;4464878;32;20345;-58
2022/06/03 09:32:45;;;;;;;4.70;2.97;;;;;;;;;;4465285;32;20274;-57
2022/06/03 09:35:16;;;;;;;5.20;3.45;;;;;;;;;;4464800;32;20226;-56
2022/06/03 09:37:46;;;;;;;5.00;3.08;;;;;;;;;;4464896;32;20295;-56
2022/06/03 09:40:23;;;;;;;7.60;2.75;;;;;;;;;;4464430;32;20238;-56
2022/06/03 09:42:57;;;;;;;4.70;3.15;;;;;;;;;;4464546;32;20639;-56
2022/06/03 09:45:25;;;;;;;6.25;2.92;;;;;;;;;;4464612;32;20250;-56
2022/06/03 09:47:51;;;;;;;8.65;3.05;;;;;;;;;;4464314;32;20418;-57
2022/06/03 09:50:19;;;;;;;4.30;2.60;;;;;;;;;;4464994;32;20285;-57
2022/06/03 09:52:48;;;;;;;5.47;2.70;;;;;;;;;;4464926;32;20307;-57
2022/06/03 09:55:41;;;;;;;11.45;3.25;;;;;;;;;;4464089;32;20248;-57
2022/06/03 09:58:17;;;;;;;7.22;3.70;;;;;;;;;;4462145;32;20386;-57
2022/06/03 10:00:47;;;;;;;10.93;3.67;;;;;;;;;;4461170;32;20350;-57
2022/06/03 10:03:14;;;;;;;6.70;3.40;;;;;;;;;;4449527;32;20231;-57
2022/06/03 10:05:42;;;;;;;10.73;3.83;;;;;;;;;;4448968;32;20252;-57
2022/06/03 10:08:11;;;;;;;9.68;3.70;;;;;;;;;;4453433;32;20247;-56
2022/06/03 10:13:22;;;;;;;9.63;3.75;;;;;;;;;;4464298;32;20218;-56
2022/06/03 10:15:55;;;;;;;5.35;3.28;;;;;;;;;;4464584;32;20316;-57
2022/06/03 10:18:44;;;;;;;5.62;3.53;;;;;;;;;;4464634;32;20240;-57
2022/06/03 10:21:10;;;;;;;5.87;3.45;;;;;;;;;;4463915;32;20327;-56
2022/06/03 10:23:53;;;;;;;5.22;3.00;;;;;;;;;;4448416;32;20319;-57
2022/06/03 10:26:22;;;;;;;5.35;2.62;;;;;;;;;;4448668;32;20818;-56
2022/06/03 10:28:50;;;;;;;4.85;2.92;;;;;;;;;;4449070;32;20557;-57
2022/06/03 10:31:19;;;;;;;6.47;3.65;;;;;;;;;;4449010;32;20232;-56
2022/06/03 10:33:56;;;;;;;6.00;2.47;;;;;;;;;;4449155;32;20224;-56
2022/06/03 10:36:33;;;;;;;11.25;3.45;;;;;;;;;;4449126;32;20223;-56
2022/06/03 10:38:58;;;;;;;8.90;2.53;;;;;;;;;;4449304;32;20252;-57
2022/06/03 10:41:40;;;;;;;7.15;2.78;;;;;;;;;;4448473;32;20229;-57
2022/06/03 10:44:23;;;;;;;7.90;3.20;;;;;;;;;;4450792;32;20192;-56
2022/06/03 10:46:54;;;;;;;10.48;3.10;;;;;;;;;;4449808;32;20221;-56
2022/06/03 10:49:21;;;;;;;11.50;3.60;;;;;;;;;;4449851;32;20306;-56
2022/06/03 11:02:48;;;;;;;7.37;3.12;;;;;;;;;;4449619;32;20265;-57
2022/06/03 11:05:25;;;;;;;4.57;2.92;;;;;;;;;;4449458;32;20193;-57
2022/06/03 11:08:02;;;;;;;7.03;3.65;;;;;;;;;;4451862;32;20224;-56
2022/06/03 11:10:40;;;;;;;8.80;3.20;;;;;;;;;;4464947;32;20656;-56
2022/06/03 11:13:08;;;;;;;5.78;3.08;;;;;;;;;;4464718;32;20251;-56
2022/06/03 11:15:40;;;;;;;12.05;3.95;;;;;;;;;;4464867;32;20798;-57
2022/06/03 11:18:16;;;;;;;5.60;2.85;;;;;;;;;;4464616;32;20215;-57
2022/06/03 11:20:42;;;;;;;9.35;3.53;;;;;;;;;;4464843;32;20214;-56
2022/06/03 11:23:13;;;;;;;3.60;2.90;;;;;;;;;;4465093;32;20232;-56
2022/06/03 11:25:50;;;;;;;4.35;2.90;;;;;;;;;;4464502;32;20204;-56
2022/06/03 11:28:16;;;;;;;4.93;2.85;;;;;;;;;;4464547;32;20275;-55
2022/06/03 11:30:55;;;;;;;5.32;3.00;;;;;;;;;;4464518;32;20263;-56
2022/06/03 11:33:39;;;;;;;13.32;3.20;;;;;;;;;;4464921;32;20224;-56
2022/06/03 11:36:05;;;;;;;10.45;3.62;;;;;;;;;;4464173;32;20194;-57
2022/06/03 11:38:44;;;;;;;9.80;3.05;;;;;;;;;;4464506;32;20271;-58
2022/06/03 11:41:19;;;;;;;9.77;3.53;;;;;;;;;;4463707;32;20339;-56
2022/06/03 11:43:57;;;;;;;8.40;4.07;;;;;;;;;;4464331;32;20208;-56
2022/06/03 11:46:46;;;;;;;8.10;3.47;;;;;;;;;;4464605;32;20208;-56
2022/06/03 11:49:17;;;;;;;16.50;3.85;;;;;;;;;;4463933;32;20298;-56
2022/06/03 11:51:43;;;;;;;6.30;3.42;;;;;;;;;;4464224;32;20254;-55
2022/06/03 11:54:14;;;;;;;7.20;3.25;;;;;;;;;;4464042;32;20626;-56
2022/06/03 11:56:41;;;;;;;9.63;3.60;;;;;;;;;;4463351;32;20234;-56
2022/06/03 11:59:12;;;;;;;7.47;3.50;;;;;;;;;;4463100;32;20283;-56
2022/06/03 12:01:49;;;;;;;5.28;3.20;;;;;;;;;;4448487;32;20251;-56
2022/06/03 12:04:39;;;;;;;11.75;4.75;;;;;;;;;;4448366;32;20256;-56
2022/06/03 12:07:28;;;;;;;5.50;3.17;;;;;;;;;;4448307;32;20200;-56
2022/06/03 12:09:56;;;;;;;8.25;4.20;;;;;;;;;;4448375;32;20208;-56
2022/06/03 12:15:30;;;;;;;8.43;3.70;;;;;;;;;;4448083;32;20301;-57
2022/06/03 12:17:57;;;;;;;8.75;3.33;;;;;;;;;;4448402;32;20289;-57
2022/06/03 12:20:32;;;;;;;11.48;3.65;;;;;;;;;;4448677;32;20211;-57
2022/06/03 12:23:13;;;;;;;9.98;3.85;;;;;;;;;;4448174;32;20290;-56
2022/06/03 12:25:54;;;;;;;5.75;3.03;;;;;;;;;;4447777;32;20196;-56
2022/06/03 12:28:29;;;;;;;5.62;2.50;;;;;;;;;;4448318;32;20340;-58
2022/06/03 12:30:58;;;;;;;6.47;3.08;;;;;;;;;;4448327;32;20272;-56
2022/06/03 12:33:43;;;;;;;7.28;2.97;;;;;;;;;;4448145;32;20678;-56
2022/06/03 12:36:36;;;;;;;5.75;3.17;;;;;;;;;;4448528;32;20197;-56
2022/06/03 12:39:08;;;;;;;13.45;3.60;;;;;;;;;;4448433;32;20264;-56
2022/06/03 12:41:46;;;;;;;6.30;2.35;;;;;;;;;;4447593;32;20229;-56
2022/06/03 12:44:47;;;;;;;7.35;2.95;;;;;;;;;;4447301;32;20329;-56
2022/06/03 12:47:31;;;;;;;5.93;2.80;;;;;;;;;;4448136;32;20227;-56
2022/06/03 12:50:36;;;;;;;4.72;3.17;;;;;;;;;;4448233;32;20835;-56
2022/06/03 12:53:30;;;;;;;4.00;2.53;;;;;;;;;;4448053;32;20238;-57
2022/06/03 12:56:02;;;;;;;11.18;3.55;;;;;;;;;;4453335;32;20663;-57
2022/06/03 12:58:37;;;;;;;5.87;2.75;;;;;;;;;;4464052;32;20239;-57
2022/06/03 13:01:05;;;;;;;9.18;3.42;;;;;;;;;;4449617;32;20608;-56
2022/06/03 13:03:33;;;;;;;9.80;3.20;;;;;;;;;;4448841;32;20613;-56
2022/06/03 13:06:03;;;;;;;4.35;2.75;;;;;;;;;;4451093;32;20209;-57
2022/06/03 13:08:28;;;;;;;4.07;3.03;;;;;;;;;;4457251;32;20208;-57
2022/06/03 13:11:01;;;;;;;4.50;2.55;;;;;;;;;;4459086;32;20254;-57
2022/06/03 13:13:29;;;;;;;7.53;2.50;;;;;;;;;;4451275;32;20327;-56
2022/06/03 13:16:19;;;;;;;6.82;3.72;;;;;;;;;;4450992;32;20248;-57
2022/06/03 13:18:48;;;;;;;4.07;2.62;;;;;;;;;;4441759;32;20298;-56
2022/06/03 13:21:19;;;;;;;10.05;2.67;;;;;;;;;;4450586;32;20327;-56
2022/06/03 13:23:46;;;;;;;6.55;2.25;;;;;;;;;;4450958;32;20262;-56
2022/06/03 13:26:21;;;;;;;4.07;2.15;;;;;;;;;;4450124;32;20250;-56
2022/06/03 13:28:58;;;;;;;2.55;2.22;;;;;;;;;;4451075;32;20736;-56
2022/06/03 13:31:39;;;;;;;14.48;3.30;;;;;;;;;;4450680;32;20308;-56
2022/06/03 13:34:10;;;;;;;3.95;1.75;;;;;;;;;;4450712;32;20253;-56
2022/06/03 13:36:40;;;;;;;6.00;2.87;;;;;;;;;;4450396;32;20311;-57
2022/06/03 13:39:16;;;;;;;7.78;3.00;;;;;;;;;;4450516;32;20246;-57
2022/06/03 13:44:50;;;;;;;6.78;2.05;;;;;;;;;;4450591;32;20278;-56
2022/06/03 13:47:19;;;;;;;11.35;2.95;;;;;;;;;;4449184;32;20316;-57
2022/06/03 13:50:17;;;;;;;5.10;2.90;;;;;;;;;;4450349;32;20840;-56
2022/06/03 13:52:51;;;;;;;7.45;3.50;;;;;;;;;;4450358;32;20212;-57
2022/06/03 13:55:27;;;;;;;11.63;4.43;;;;;;;;;;4452987;32;20298;-57
2022/06/03 13:58:16;;;;;;;9.43;3.33;;;;;;;;;;4465958;32;20556;-56
2022/06/03 14:00:50;;;;;;;5.30;2.83;;;;;;;;;;4462957;32;20278;-57
2022/06/03 14:03:34;;;;;;;14.65;3.42;;;;;;;;;;4450118;32;20747;-56
2022/06/03 14:06:02;;;;;;;4.05;3.00;;;;;;;;;;4448554;32;20205;-57
2022/06/03 14:08:36;;;;;;;4.28;3.00;;;;;;;;;;4456024;32;20324;-56
2022/06/03 14:11:05;;;;;;;10.98;3.75;;;;;;;;;;4464717;32;20284;-56
2022/06/03 14:13:55;;;;;;;11.07;3.15;;;;;;;;;;4465675;32;20812;-56
2022/06/03 14:16:29;;;;;;;6.97;3.20;;;;;;;;;;4464310;32;20246;-57
2022/06/03 14:19:09;;;;;;;6.22;3.60;;;;;;;;;;4466054;32;20321;-56
2022/06/03 14:21:41;;;;;;;6.82;3.53;;;;;;;;;;4465530;32;20216;-56
2022/06/03 14:24:15;;;;;;;6.62;3.22;;;;;;;;;;4465682;32;20358;-57
2022/06/03 14:26:52;;;;;;;5.20;3.15;;;;;;;;;;4465136;32;20583;-56
2022/06/03 14:29:24;;;;;;;5.47;3.67;;;;;;;;;;4465599;32;20238;-56
2022/06/03 14:31:53;;;;;;;9.18;3.55;;;;;;;;;;4465639;32;20286;-56
2022/06/03 14:34:29;;;;;;;20.58;4.18;;;;;;;;;;4465124;32;20196;-56
2022/06/03 14:36:58;;;;;;;6.70;3.37;;;;;;;;;;4465504;32;20220;-56
2022/06/03 14:39:35;;;;;;;12.98;4.47;;;;;;;;;;4464918;32;20525;-56
2022/06/03 14:42:05;;;;;;;6.60;3.62;;;;;;;;;;4464779;32;20536;-57
2022/06/03 14:44:32;;;;;;;4.95;3.95;;;;;;;;;;4465653;32;20522;-56
2022/06/03 14:47:03;;;;;;;15.65;3.47;;;;;;;;;;4464946;32;20212;-56
2022/06/03 14:49:49;;;;;;;7.97;3.80;;;;;;;;;;4464255;32;20643;-56
2022/06/03 14:52:17;;;;;;;5.20;3.70;;;;;;;;;;4463992;32;20284;-56
2022/06/03 14:54:49;;;;;;;10.48;4.87;;;;;;;;;;4464852;32;20237;-56
2022/06/03 14:57:24;;;;;;;5.47;4.18;;;;;;;;;;4464798;32;20220;-56
2022/06/03 15:00:26;;;;;;;9.50;4.53;;;;;;;;;;4459505;32;20604;-56
2022/06/03 15:03:21;;;;;;;8.65;3.95;;;;;;;;;;4448860;32;20216;-56
2022/06/03 15:06:31;;;;;;;9.50;4.22;;;;;;;;;;4448953;32;20317;-56
2022/06/03 15:09:02;;;;;;;9.93;4.57;;;;;;;;;;4458102;32;20283;-57
2022/06/03 15:11:36;;;;;;;10.98;4.53;;;;;;;;;;4463911;32;20299;-57
2022/06/03 15:14:07;;;;;;;7.35;3.90;;;;;;;;;;4463791;32;20200;-58
2022/06/03 15:16:33;;;;;;;15.00;4.03;;;;;;;;;;4464383;32;20235;-58
2022/06/03 15:18:58;;;;;;;6.90;4.10;;;;;;;;;;4464848;32;20188;-57
2022/06/03 15:21:32;;;;;;;12.27;4.40;;;;;;;;;;4464562;32;20273;-57
2022/06/03 15:24:01;;;;;;;6.32;4.55;;;;;;;;;;4465161;32;20200;-57
2022/06/03 15:26:41;;;;;;;13.98;4.28;;;;;;;;;;4463870;32;20251;-57
2022/06/03 15:29:14;;;;;;;13.55;4.00;;;;;;;;;;4464820;32;20276;-57
2022/06/03 15:31:39;;;;;;;13.00;4.35;;;;;;;;;;4464121;32;20225;-57
2022/06/03 15:34:07;;;;;;;8.45;4.30;;;;;;;;;;4464446;32;20234;-57
2022/06/03 15:36:47;;;;;;;9.45;4.47;;;;;;;;;;4464481;32;20298;-57
2022/06/03 15:39:24;;;;;;;10.63;4.12;;;;;;;;;;4464332;32;20219;-57
2022/06/03 15:41:51;;;;;;;4.60;3.72;;;;;;;;;;4464096;32;20318;-57
2022/06/03 15:44:43;;;;;;;18.48;6.00;;;;;;;;;;4464057;32;20448;-57
2022/06/03 15:47:26;;;;;;;10.40;3.72;;;;;;;;;;4464111;32;20528;-57
2022/06/03 15:50:07;;;;;;;15.25;5.25;;;;;;;;;;4464097;32;20244;-57
2022/06/03 15:52:48;;;;;;;12.48;5.07;;;;;;;;;;4464207;32;20200;-56
2022/06/03 15:55:15;;;;;;;8.48;4.53;;;;;;;;;;4463615;32;20231;-56
2022/06/03 15:57:43;;;;;;;5.80;4.72;;;;;;;;;;4464309;32;20220;-56
2022/06/03 16:00:13;;;;;;;17.37;6.20;;;;;;;;;;4453689;32;20212;-56
2022/06/03 16:02:48;;;;;;;5.00;4.43;;;;;;;;;;4448334;32;20320;-56
2022/06/03 16:05:21;;;;;;;16.45;4.70;;;;;;;;;;4448107;32;20204;-56
2022/06/03 16:08:13;;;;;;;11.77;5.80;;;;;;;;;;4450355;32;20617;-56
2022/06/03 16:11:01;;;;;;;7.35;4.20;;;;;;;;;;4463686;32;20669;-57
2022/06/03 16:13:59;;;;;;;8.60;4.43;;;;;;;;;;4463666;32;20639;-57
2022/06/03 16:16:55;;;;;;;13.60;4.90;;;;;;;;;;4463745;32;20324;-57
2022/06/03 16:19:38;;;;;;;8.00;6.32;;;;;;;;;;4463367;32;20201;-57
2022/06/03 16:22:28;;;;;;;20.90;15.02;;;;;;;;;;4463528;32;20259;-56
2022/06/03 16:25:16;;;;;;;14.13;6.55;;;;;;;;;;4463404;32;20196;-57
2022/06/03 16:27:45;;;;;;;7.75;4.90;;;;;;;;;;4463598;32;20677;-57